METAR Data
IDs: Format: Raw Decoded Include TAF

Data at: 0310 UTC 18 Jun 2019

PALH 180253Z 17011G21KT 130V200 10SM SCT090 OVC110 19/07 A2965 RMK AO2 PK WND 17026/0157 SLP040 T01890072 53004
PALH 180153Z 18014G24KT 10SM OVC100 18/07 A2964 RMK AO2 SLP039 T01830072
PALH 180053Z 19012G20KT 10SM FEW085 SCT110 19/08 A2963 RMK AO2 SLP035 T01890078
PALH 172353Z VRB06KT 10SM BKN100 21/08 A2963 RMK AO2 SLP036 60001 T02060083 10206 20150 51002
PALH 172253Z VRB04KT 10SM FEW080 BKN100 20/09 A2963 RMK AO2 RAB02E41 SLP036 P0001 T02000094
PALH 172153Z 00000KT 10SM OVC075 18/08 A2963 RMK AO2 SLP035 T01830083
PALH 172053Z 18003KT 10SM CLR 19/06 A2963 RMK AO2 SLP033 T01940061 56002
PALH 171953Z 00000KT 10SM SCT090 18/08 A2963 RMK AO2 SLP034 T01780083
PALH 171853Z 03008KT 10SM CLR 17/08 A2963 RMK AO2 SLP034 T01670078
PALH 171753Z VRB04KT 10SM CLR 15/09 A2963 RMK AO2 SLP036 T01500089 10150 20100 56006
PALH 171653Z 03004KT 10SM FEW100 13/09 A2964 RMK AO2 SLP038 T01330094
PALH 171553Z 01006KT 10SM CLR 13/08 A2964 RMK AO2 SLP038 T01280083
PALH 171453Z 00000KT 10SM CLR 12/09 A2965 RMK AO2 SLP042 T01220094 56011
PALH 171353Z 00000KT 10SM CLR 11/09 A2966 RMK AO2 SLP045 T01060089
PALH 171253Z 00000KT 10SM FEW110 11/09 A2967 RMK AO2 SLP049 T01060094
PALH 171153Z 04003KT 10SM OVC120 12/11 A2969 RMK AO2 SLP053 60003 70003 T01170106 10144 20117 58016
PALH 171053Z 05003KT 10SM OVC095 12/11 A2970 RMK AO2 SLP059 T01220106
PALH 170953Z 07003KT 10SM OVC090 12/10 A2972 RMK AO2 SLP065 T01220100
PALH 170853Z 00000KT 10SM OVC080 13/08 A2973 RMK AO2 RAE29 SLP068 P0001 60003 T01280083 401830111 58002
PALH 170753Z 19005KT 10SM -RA OVC060 12/09 A2974 RMK AO2 SLP072 P0002 T01220089
PALH 170653Z 18008G15KT 10SM -RA SCT065 OVC080 14/07 A2974 RMK AO2 RAB47 SLP071 P0000 T01390072
PALH 170553Z 18011G17KT 10SM FEW090 OVC110 14/07 A2974 RMK AO2 RAE06 SLP071 P0000 60000 T01440067 10178 20144 56003
PALH 170453Z 18009G14KT 10SM -RA BKN070 OVC080 14/07 A2974 RMK AO2 RAB04 SLP072 P0000 T01440072
PALH 170353Z 18011G20KT 10SM BKN075 OVC100 15/07 A2974 RMK AO2 SLP072 T01500067
PALH 170253Z 18014G20KT 10SM BKN080 BKN120 16/07 A2975 RMK AO2 SLP074 T01610072 58009
PALH 170153Z 18012G19KT 10SM BKN090 BKN100 16/08 A2976 RMK AO2 SLP078 T01610078
PALH 170053Z 18010G17KT 10SM BKN080 BKN120 17/08 A2977 RMK AO2 SLP081 T01670078
PALH 162353Z 18010KT 10SM CLR 18/08 A2977 RMK AO2 SLP083 60000 T01780078 10183 20144 57009
PALH 162253Z 18010G15KT 10SM FEW110 17/08 A2978 RMK AO2 SLP086 T01670078
PALH 162153Z 18003KT 10SM FEW041 BKN080 BKN100 16/08 A2979 RMK AO2 RAB30E38 SLP089 P0000 T01610083
PALH 162053Z 00000KT 10SM FEW049 SCT065 BKN095 16/08 A2980 RMK AO2 RAB02E35 SLP092 P0000 60000 T01560083 58001
PALH 161953Z 00000KT 10SM FEW050 BKN075 BKN100 15/09 A2980 RMK AO2 SLP093 T01500089
PALH 161853Z 00000KT 10SM BKN070 15/09 A2981 RMK AO2 SLP095 T01500089
PALH 161753Z 32005KT 10SM FEW017 FEW100 14/09 A2981 RMK AO2 SLP093 60000 T01440089 10156 20111 55000
PALH 161653Z 01005KT 10SM FEW016 15/11 A2980 RMK AO2 SLP092 T01500106
PALH 161553Z 00000KT 10SM CLR 14/11 A2980 RMK AO2 SLP093 T01390106